createdAt,value
2019-05-01T00:01:31.074Z,95821.00
2019-05-01T00:04:24.263Z,95827.00
2019-05-01T00:06:59.126Z,95814.00
2019-05-01T00:09:32.102Z,95817.00
2019-05-01T00:12:04.025Z,95815.00
2019-05-01T00:14:35.815Z,95810.00
2019-05-01T00:17:07.819Z,95814.00
2019-05-01T00:19:39.642Z,95815.00
2019-05-01T00:22:11.697Z,95819.00
2019-05-01T00:24:43.883Z,95809.00
2019-05-01T00:27:16.022Z,95817.00
2019-05-01T00:29:48.112Z,95811.00
2019-05-01T00:32:20.386Z,95807.00
2019-05-01T00:34:52.187Z,95805.00
2019-05-01T00:37:25.228Z,95798.00
2019-05-01T00:39:57.326Z,95802.00
2019-05-01T00:42:29.167Z,95801.00
2019-05-01T00:45:00.983Z,95793.00
2019-05-01T00:47:32.973Z,95794.00
2019-05-01T00:50:05.147Z,95790.00
2019-05-01T00:52:37.310Z,95786.00
2019-05-01T00:55:26.894Z,95783.00
2019-05-01T00:58:13.134Z,95778.00
2019-05-01T01:01:05.063Z,95777.00
2019-05-01T01:03:37.519Z,95774.00
2019-05-01T01:06:09.651Z,95775.00
2019-05-01T01:08:41.886Z,95774.00
2019-05-01T01:11:14.269Z,95772.00
2019-05-01T01:13:46.910Z,95774.00
2019-05-01T01:16:19.159Z,95767.00
2019-05-01T01:18:51.343Z,95764.00
2019-05-01T01:21:23.155Z,95762.00
2019-05-01T01:23:55.417Z,95758.00
2019-05-01T01:26:27.507Z,95751.00
2019-05-01T01:28:59.667Z,95758.00
2019-05-01T01:31:31.530Z,95761.00
2019-05-01T01:34:03.968Z,95756.00
2019-05-01T01:36:36.037Z,95758.00
2019-05-01T01:39:08.730Z,95746.00
2019-05-01T01:41:40.855Z,95746.00
2019-05-01T01:44:26.356Z,95751.00
2019-05-01T01:46:58.318Z,95754.00
2019-05-01T01:49:30.384Z,95752.00
2019-05-01T01:52:02.286Z,95747.00
2019-05-01T01:54:34.887Z,95745.00
2019-05-01T01:57:06.982Z,95753.00
2019-05-01T01:59:39.271Z,95754.00
2019-05-01T02:02:36.201Z,95748.00
2019-05-01T02:05:20.857Z,95742.00
2019-05-01T02:07:53.277Z,95741.00
2019-05-01T02:10:25.551Z,95740.00
2019-05-01T02:12:58.568Z,95744.00
2019-05-01T02:15:30.739Z,95739.00
2019-05-01T02:18:02.833Z,95736.00
2019-05-01T02:20:37.330Z,95733.00
2019-05-01T02:23:09.155Z,95739.00
2019-05-01T02:25:43.165Z,95736.00
2019-05-01T02:28:30.721Z,95736.00
2019-05-01T02:31:29.815Z,95736.00
2019-05-01T02:34:03.457Z,95731.00
2019-05-01T02:36:35.815Z,95735.00
2019-05-01T02:39:10.095Z,95723.00
2019-05-01T02:41:44.293Z,95733.00
2019-05-01T02:44:27.895Z,95726.00
2019-05-01T02:47:03.364Z,95729.00
2019-05-01T02:49:52.226Z,95730.00
2019-05-01T02:52:30.221Z,95722.00
2019-05-01T02:55:06.419Z,95726.00
2019-05-01T02:57:39.190Z,95725.00
2019-05-01T03:00:11.133Z,95724.00
2019-05-01T03:02:43.298Z,95726.00
2019-05-01T03:05:15.261Z,95723.00
2019-05-01T03:07:47.133Z,95723.00
2019-05-01T03:10:19.444Z,95719.00
2019-05-01T03:12:52.479Z,95718.00
2019-05-01T03:15:25.890Z,95710.00
2019-05-01T03:18:05.931Z,95725.00
2019-05-01T03:20:59.941Z,95724.00
2019-05-01T03:23:35.992Z,95714.00
2019-05-01T03:26:08.110Z,95720.00
2019-05-01T03:28:40.822Z,95716.00
2019-05-01T03:31:12.889Z,95724.00
2019-05-01T03:33:45.152Z,95714.00
2019-05-01T03:36:17.282Z,95715.00
2019-05-01T03:38:49.538Z,95708.00
2019-05-01T03:41:22.160Z,95707.00
2019-05-01T03:43:54.508Z,95708.00
2019-05-01T03:46:27.451Z,95645.00
2019-05-01T03:48:59.836Z,95716.00
2019-05-01T03:51:31.738Z,95714.00
2019-05-01T03:54:04.643Z,95721.00
2019-05-01T03:56:36.647Z,95714.00
2019-05-01T03:59:08.808Z,95714.00
2019-05-01T04:02:03.235Z,95703.00
2019-05-01T04:04:35.093Z,95698.00
2019-05-01T04:07:06.921Z,95700.00
2019-05-01T04:09:38.768Z,95705.00
2019-05-01T04:12:11.128Z,95708.00
2019-05-01T04:14:43.085Z,95706.00
2019-05-01T04:17:31.103Z,95709.00
2019-05-01T04:20:03.560Z,95711.00
2019-05-01T04:22:35.417Z,95701.00
2019-05-01T04:25:07.648Z,95702.00
2019-05-01T04:27:43.923Z,95706.00
2019-05-01T04:30:26.358Z,95722.00
2019-05-01T04:33:01.199Z,95709.00
2019-05-01T04:35:53.629Z,95710.00
2019-05-01T04:38:25.766Z,95720.00
2019-05-01T04:40:57.638Z,95719.00
2019-05-01T04:43:29.707Z,95718.00
2019-05-01T04:46:01.946Z,95710.00
2019-05-01T04:48:35.033Z,95720.00
2019-05-01T04:51:07.247Z,95719.00
2019-05-01T04:53:40.005Z,95708.00
2019-05-01T04:56:12.187Z,95720.00
2019-05-01T04:58:44.523Z,95716.00
2019-05-01T05:01:17.170Z,95723.00
2019-05-01T05:03:49.339Z,95720.00
2019-05-01T05:06:21.196Z,95719.00
2019-05-01T05:08:53.358Z,95722.00
2019-05-01T05:11:28.289Z,95727.00
2019-05-01T05:14:17.818Z,95717.00
2019-05-01T05:17:11.841Z,95723.00
2019-05-01T05:19:44.321Z,95726.00
2019-05-01T05:22:16.728Z,95720.00
2019-05-01T05:24:49.265Z,95717.00
2019-05-01T05:27:21.515Z,95718.00
2019-05-01T05:29:56.798Z,95715.00
2019-05-01T05:32:30.526Z,95716.00
2019-05-01T05:35:04.277Z,95717.00
2019-05-01T05:37:42.897Z,95723.00
2019-05-01T05:40:15.004Z,95714.00
2019-05-01T05:42:47.297Z,95709.00
2019-05-01T05:45:19.486Z,95724.00
2019-05-01T05:47:51.683Z,95725.00
2019-05-01T05:50:25.500Z,95715.00
2019-05-01T05:53:02.934Z,95714.00
2019-05-01T05:55:42.426Z,95708.00
2019-05-01T05:58:25.128Z,95714.00
2019-05-01T06:01:16.519Z,95719.00
2019-05-01T06:04:14.719Z,95708.00
2019-05-01T06:07:10.031Z,95714.00
2019-05-01T06:10:13.816Z,95714.00
2019-05-01T06:13:08.571Z,95711.00
2019-05-01T06:15:53.818Z,95708.00
2019-05-01T06:18:39.293Z,95707.00
2019-05-01T06:21:23.168Z,95708.00
2019-05-01T06:24:06.512Z,95701.00
2019-05-01T06:26:39.361Z,95700.00
2019-05-01T06:29:11.053Z,95700.00
2019-05-01T06:31:43.452Z,95699.00
2019-05-01T06:34:16.772Z,95703.00
2019-05-01T06:36:49.850Z,95699.00
2019-05-01T06:39:23.018Z,95697.00
2019-05-01T06:41:57.009Z,95696.00
2019-05-01T06:44:39.235Z,95695.00
2019-05-01T06:47:23.779Z,95691.00
2019-05-01T06:50:17.404Z,95694.00
2019-05-01T06:52:54.269Z,95691.00
2019-05-01T06:55:27.089Z,95691.00
2019-05-01T06:58:05.440Z,95694.00
2019-05-01T07:00:42.996Z,95693.00
2019-05-01T07:03:15.257Z,95694.00
2019-05-01T07:05:49.139Z,95688.00
2019-05-01T07:08:29.439Z,95685.00
2019-05-01T07:11:02.243Z,95686.00
2019-05-01T07:13:55.507Z,95691.00
2019-05-01T07:16:33.141Z,95690.00
2019-05-01T07:19:07.943Z,95690.00
2019-05-01T07:21:42.029Z,95687.00
2019-05-01T07:24:16.091Z,95697.00
2019-05-01T07:26:49.759Z,95685.00
2019-05-01T07:29:25.728Z,95685.00
2019-05-01T07:32:01.618Z,95688.00
2019-05-01T07:34:32.469Z,95684.00
2019-05-01T07:37:09.973Z,95688.00
2019-05-01T07:39:44.837Z,95687.00
2019-05-01T07:42:32.505Z,95683.00
2019-05-01T07:45:26.632Z,95685.00
2019-05-01T07:48:00.957Z,95684.00
2019-05-01T07:50:35.795Z,95680.00
2019-05-01T07:53:08.488Z,95679.00
2019-05-01T07:55:40.479Z,95678.00
2019-05-01T07:58:15.727Z,95677.00
2019-05-01T08:01:04.177Z,95673.00
2019-05-01T08:03:38.090Z,95678.00
2019-05-01T08:06:11.081Z,95679.00
2019-05-01T08:08:43.254Z,95682.00
2019-05-01T08:11:15.124Z,95680.00
2019-05-01T08:13:46.980Z,95682.00
2019-05-01T08:16:18.938Z,95680.00
2019-05-01T08:18:59.027Z,95685.00
2019-05-01T08:21:49.437Z,95691.00
2019-05-01T08:24:22.988Z,95681.00
2019-05-01T08:26:55.555Z,95679.00
2019-05-01T08:29:55.791Z,95682.00
2019-05-01T08:32:39.132Z,95683.00
2019-05-01T08:35:10.839Z,95684.00
2019-05-01T08:37:43.714Z,95686.00
2019-05-01T08:40:20.097Z,95682.00
2019-05-01T08:42:50.800Z,95679.00
2019-05-01T08:45:42.562Z,95683.00
2019-05-01T08:48:37.619Z,95686.00
2019-05-01T08:51:10.017Z,95688.00
2019-05-01T08:53:42.080Z,95683.00
2019-05-01T08:56:16.916Z,95687.00
2019-05-01T08:58:49.417Z,95673.00
2019-05-01T09:01:22.807Z,95678.00
2019-05-01T09:03:55.728Z,95676.00
2019-05-01T09:06:34.606Z,95682.00
2019-05-01T09:09:02.891Z,95679.00
2019-05-01T09:11:36.194Z,95678.00
2019-05-01T09:14:09.242Z,95676.00
2019-05-01T09:16:41.548Z,95680.00
2019-05-01T09:19:14.041Z,95679.00
2019-05-01T09:21:46.457Z,95687.00
2019-05-01T09:24:18.601Z,95679.00
2019-05-01T09:27:01.325Z,95673.00
2019-05-01T09:29:42.509Z,95679.00
2019-05-01T09:32:15.158Z,95668.00
2019-05-01T09:34:48.316Z,95674.00
2019-05-01T09:37:20.979Z,95671.00
2019-05-01T09:39:53.296Z,95680.00
2019-05-01T09:42:25.528Z,95668.00
2019-05-01T09:44:57.839Z,95672.00
2019-05-01T09:47:30.549Z,95679.00
2019-05-01T09:50:02.759Z,95681.00
2019-05-01T09:52:55.112Z,95677.00
2019-05-01T09:55:34.536Z,95679.00
2019-05-01T09:58:06.442Z,95671.00
2019-05-01T10:00:38.719Z,95671.00
2019-05-01T10:03:13.120Z,95666.00
2019-05-01T10:05:44.916Z,95659.00
2019-05-01T10:08:17.696Z,95665.00
2019-05-01T10:10:50.076Z,95657.00
2019-05-01T10:13:24.143Z,95659.00
2019-05-01T10:15:56.818Z,95653.00
2019-05-01T10:18:28.700Z,95655.00
2019-05-01T10:21:00.676Z,95652.00
2019-05-01T10:23:32.811Z,95648.00
2019-05-01T10:26:07.362Z,95649.00
2019-05-01T10:28:52.306Z,95646.00
2019-05-01T10:32:04.474Z,95645.00
2019-05-01T10:34:48.728Z,95642.00
2019-05-01T10:37:37.912Z,95642.00
2019-05-01T10:40:11.290Z,95644.00
2019-05-01T10:42:48.221Z,95641.00
2019-05-01T10:45:23.125Z,95639.00
2019-05-01T10:47:57.572Z,95638.00
2019-05-01T10:50:32.254Z,95643.00
2019-05-01T10:53:05.776Z,95628.00
2019-05-01T10:55:41.809Z,95616.00
2019-05-01T10:58:17.961Z,95627.00
2019-05-01T11:00:50.184Z,95621.00
2019-05-01T11:03:22.375Z,95622.00
2019-05-01T11:05:55.984Z,95628.00
2019-05-01T11:08:28.749Z,95626.00
2019-05-01T11:11:00.632Z,95621.00
2019-05-01T11:13:33.826Z,95627.00
2019-05-01T11:16:06.346Z,95620.00
2019-05-01T11:18:38.239Z,95625.00
2019-05-01T11:21:10.096Z,95622.00
2019-05-01T11:23:42.075Z,95613.00
2019-05-01T11:26:13.936Z,95614.00
2019-05-01T11:28:45.794Z,95611.00
2019-05-01T11:31:21.808Z,95618.00
2019-05-01T11:34:11.656Z,95615.00
2019-05-01T11:37:05.746Z,95606.00
2019-05-01T11:39:42.295Z,95604.00
2019-05-01T11:42:15.097Z,95609.00
2019-05-01T11:44:47.364Z,95604.00
2019-05-01T11:47:19.456Z,95606.00
2019-05-01T11:49:51.702Z,95604.00
2019-05-01T11:52:23.972Z,95609.00
2019-05-01T11:54:56.574Z,95599.00
2019-05-01T11:57:28.980Z,95600.00
2019-05-01T12:00:01.270Z,95608.00
2019-05-01T12:02:33.178Z,95603.00
2019-05-01T12:05:06.544Z,95603.00
2019-05-01T12:07:38.953Z,95600.00
2019-05-01T12:10:10.997Z,95599.00
2019-05-01T12:12:42.855Z,95599.00
2019-05-01T12:15:15.579Z,95596.00
2019-05-01T12:17:50.770Z,95610.00
2019-05-01T12:20:23.787Z,95588.00
2019-05-01T12:22:55.622Z,95592.00
2019-05-01T12:25:27.536Z,95593.00
2019-05-01T12:28:02.937Z,95589.00
2019-05-01T12:30:35.847Z,95597.00
2019-05-01T12:33:07.702Z,95595.00
2019-05-01T12:35:39.975Z,95587.00
2019-05-01T12:38:11.826Z,95581.00
2019-05-01T12:40:47.331Z,95579.00
2019-05-01T12:43:20.667Z,95580.00
2019-05-01T12:45:52.931Z,95575.00
2019-05-01T12:48:25.515Z,95571.00
2019-05-01T12:50:57.841Z,95566.00
2019-05-01T12:53:42.292Z,95562.00
2019-05-01T12:56:22.982Z,95560.00
2019-05-01T12:58:55.979Z,95559.00
2019-05-01T13:01:27.878Z,95561.00
2019-05-01T13:03:59.725Z,95554.00
2019-05-01T13:06:31.621Z,95551.00
2019-05-01T13:09:04.563Z,95552.00
2019-05-01T13:11:36.560Z,95553.00
2019-05-01T13:14:08.409Z,95549.00
2019-05-01T13:16:40.829Z,95546.00
2019-05-01T13:19:12.933Z,95549.00
2019-05-01T13:21:45.425Z,95546.00
2019-05-01T13:24:17.860Z,95544.00
2019-05-01T13:26:59.368Z,95547.00
2019-05-01T13:29:36.771Z,95539.00
2019-05-01T13:32:26.430Z,95547.00
2019-05-01T13:34:58.658Z,95534.00
2019-05-01T13:37:31.437Z,95540.00
2019-05-01T13:40:03.343Z,95529.00
2019-05-01T13:42:36.509Z,95517.00
2019-05-01T13:45:08.859Z,95519.00
2019-05-01T13:47:41.214Z,95523.00
2019-05-01T13:50:13.334Z,95514.00
2019-05-01T13:52:45.571Z,95510.00
2019-05-01T13:55:17.515Z,95527.00
2019-05-01T13:57:50.279Z,95510.00
2019-05-01T14:00:23.750Z,95503.00
2019-05-01T14:02:55.758Z,95500.00
2019-05-01T14:05:27.999Z,95503.00
2019-05-01T14:07:59.929Z,95497.00
2019-05-01T14:10:32.557Z,95497.00
2019-05-01T14:13:04.409Z,95500.00
2019-05-01T14:15:36.734Z,95500.00
2019-05-01T14:18:08.890Z,95497.00
2019-05-01T14:20:49.038Z,95493.00
2019-05-01T14:23:42.732Z,95498.00
2019-05-01T14:26:14.993Z,95487.00
2019-05-01T14:28:47.223Z,95490.00
2019-05-01T14:31:19.109Z,95495.00
2019-05-01T14:33:50.980Z,95494.00
2019-05-01T14:36:23.380Z,95480.00
2019-05-01T14:38:55.262Z,95493.00
2019-05-01T14:41:27.804Z,95479.00
2019-05-01T14:44:00.722Z,95479.00
2019-05-01T14:46:32.557Z,95475.00
2019-05-01T14:49:04.537Z,95471.00
2019-05-01T14:51:37.164Z,95470.00
2019-05-01T14:54:09.847Z,95474.00
2019-05-01T14:56:43.413Z,95472.00
2019-05-01T14:59:15.900Z,95473.00
2019-05-01T15:01:48.020Z,95474.00
2019-05-01T15:04:20.439Z,95468.00
2019-05-01T15:06:52.393Z,95474.00
2019-05-01T15:09:24.842Z,95464.00
2019-05-01T15:11:57.038Z,95462.00
2019-05-01T15:14:54.248Z,95460.00
2019-05-01T15:17:32.678Z,95454.00
2019-05-01T15:20:06.467Z,95447.00
2019-05-01T15:22:38.586Z,95443.00
2019-05-01T15:25:11.012Z,95441.00
2019-05-01T15:27:42.873Z,95443.00
2019-05-01T15:30:18.837Z,95444.00
2019-05-01T15:32:51.614Z,95442.00
2019-05-01T15:35:23.976Z,95442.00
2019-05-01T15:37:57.252Z,95438.00
2019-05-01T15:40:38.375Z,95441.00
2019-05-01T15:43:44.535Z,95443.00
2019-05-01T15:46:16.560Z,95446.00
2019-05-01T15:48:49.471Z,95437.00
2019-05-01T15:51:21.881Z,95436.00
2019-05-01T15:53:53.900Z,95435.00
2019-05-01T15:56:26.472Z,95436.00
2019-05-01T15:58:58.626Z,95434.00
2019-05-01T16:01:30.775Z,95436.00
2019-05-01T16:04:03.275Z,95435.00
2019-05-01T16:06:35.483Z,95425.00
2019-05-01T16:09:08.903Z,95427.00
2019-05-01T16:12:06.365Z,95425.00
2019-05-01T16:14:43.554Z,95423.00
2019-05-01T16:17:17.669Z,95430.00
2019-05-01T16:19:49.495Z,95421.00
2019-05-01T16:22:21.803Z,95423.00
2019-05-01T16:24:53.983Z,95421.00
2019-05-01T16:27:25.828Z,95415.00
2019-05-01T16:29:57.726Z,95423.00
2019-05-01T16:32:31.782Z,95421.00
2019-05-01T16:35:03.679Z,95419.00
2019-05-01T16:37:35.766Z,95413.00
2019-05-01T16:40:26.930Z,95416.00
2019-05-01T16:42:59.625Z,95416.00
2019-05-01T16:45:31.920Z,95413.00
2019-05-01T16:48:03.928Z,95413.00
2019-05-01T16:50:35.774Z,95416.00
2019-05-01T16:53:07.755Z,95415.00
2019-05-01T16:55:40.675Z,95418.00
2019-05-01T16:58:15.146Z,95413.00
2019-05-01T17:01:06.580Z,95424.00
2019-05-01T17:03:57.259Z,95411.00
2019-05-01T17:06:40.893Z,95366.00
2019-05-01T17:09:31.162Z,95413.00
2019-05-01T17:12:02.992Z,95411.00
2019-05-01T17:14:35.220Z,95409.00
2019-05-01T17:17:10.395Z,95411.00
2019-05-01T17:19:44.801Z,95415.00
2019-05-01T17:22:16.918Z,95422.00
2019-05-01T17:24:49.175Z,95414.00
2019-05-01T17:27:21.662Z,95410.00
2019-05-01T17:29:53.908Z,95419.00
2019-05-01T17:32:26.464Z,95410.00
2019-05-01T17:35:01.794Z,95426.00
2019-05-01T17:37:32.272Z,95416.00
2019-05-01T17:40:04.316Z,95423.00
2019-05-01T17:42:37.737Z,95415.00
2019-05-01T17:45:10.333Z,95417.00
2019-05-01T17:47:42.448Z,95419.00
2019-05-01T17:50:16.424Z,95418.00
2019-05-01T17:52:48.747Z,95421.00
2019-05-01T17:55:20.985Z,95419.00
2019-05-01T17:57:52.833Z,95428.00
2019-05-01T18:00:47.165Z,95436.00
2019-05-01T18:03:38.327Z,95424.00
2019-05-01T18:06:16.264Z,95422.00
2019-05-01T18:09:02.204Z,95424.00
2019-05-01T18:11:22.923Z,95427.00
2019-05-01T18:13:55.035Z,95434.00
2019-05-01T18:16:26.916Z,95429.00
2019-05-01T18:18:58.779Z,95420.00
2019-05-01T18:21:31.269Z,95424.00
2019-05-01T18:24:28.142Z,95423.00
2019-05-01T18:27:19.071Z,95424.00
2019-05-01T18:29:57.422Z,95421.00
2019-05-01T18:32:41.614Z,95428.00
2019-05-01T18:35:14.093Z,95428.00
2019-05-01T18:38:06.157Z,95432.00
2019-05-01T18:40:50.429Z,95429.00
2019-05-01T18:43:27.006Z,95435.00
2019-05-01T18:46:00.780Z,95434.00
2019-05-01T18:48:33.156Z,95433.00
2019-05-01T18:51:05.797Z,95434.00
2019-05-01T18:53:38.372Z,95462.00
2019-05-01T18:56:10.631Z,95447.00
2019-05-01T18:58:42.505Z,95447.00
2019-05-01T19:01:14.857Z,95439.00
2019-05-01T19:03:46.833Z,95450.00
2019-05-01T19:06:19.341Z,95443.00
2019-05-01T19:08:51.317Z,95439.00
2019-05-01T19:11:23.736Z,95445.00
2019-05-01T19:13:55.966Z,95445.00
2019-05-01T19:16:27.945Z,95439.00
2019-05-01T19:19:03.697Z,95436.00
2019-05-01T19:21:36.082Z,95446.00
2019-05-01T19:24:08.483Z,95447.00
2019-05-01T19:26:42.601Z,95441.00
2019-05-01T19:29:14.241Z,95441.00
2019-05-01T19:31:46.497Z,95446.00
2019-05-01T19:34:18.930Z,95446.00
2019-05-01T19:36:51.706Z,95440.00
2019-05-01T19:39:25.301Z,95442.00
2019-05-01T19:41:58.209Z,95447.00
2019-05-01T19:44:30.732Z,95446.00
2019-05-01T19:47:02.868Z,95452.00
2019-05-01T19:49:34.872Z,95386.00
2019-05-01T19:52:08.126Z,95446.00
2019-05-01T19:54:40.032Z,95450.00
2019-05-01T19:57:12.338Z,95443.00
2019-05-01T19:59:45.551Z,95452.00
2019-05-01T20:02:22.300Z,95436.00
2019-05-01T20:04:52.402Z,95444.00
2019-05-01T20:07:24.423Z,95438.00
2019-05-01T20:09:57.595Z,95439.00
2019-05-01T20:12:30.082Z,95445.00
2019-05-01T20:15:02.647Z,95441.00
2019-05-01T20:17:34.598Z,95448.00
2019-05-01T20:20:07.228Z,95440.00
2019-05-01T20:22:39.083Z,95435.00
2019-05-01T20:25:21.213Z,95446.00
2019-05-01T20:27:53.948Z,95442.00
2019-05-01T20:30:26.389Z,95438.00
2019-05-01T20:33:02.110Z,95441.00
2019-05-01T20:35:34.439Z,95428.00
2019-05-01T20:38:07.562Z,95432.00
2019-05-01T20:43:19.047Z,95434.00
2019-05-01T20:45:51.406Z,95432.00
2019-05-01T20:48:25.222Z,95427.00
2019-05-01T20:50:57.665Z,95431.00
2019-05-01T20:53:30.817Z,95434.00
2019-05-01T20:56:17.043Z,95434.00
2019-05-01T20:58:49.116Z,95426.00
2019-05-01T21:01:24.290Z,95431.00
2019-05-01T21:04:20.616Z,95432.00
2019-05-01T21:07:15.489Z,95428.00
2019-05-01T21:09:57.248Z,95427.00
2019-05-01T21:12:28.648Z,95424.00
2019-05-01T21:15:01.274Z,95423.00
2019-05-01T21:17:33.536Z,95423.00
2019-05-01T21:20:05.771Z,95425.00
2019-05-01T21:22:39.000Z,95423.00
2019-05-01T21:25:10.966Z,95428.00
2019-05-01T21:27:44.474Z,95428.00
2019-05-01T21:30:17.143Z,95428.00
2019-05-01T21:32:49.468Z,95427.00
2019-05-01T21:35:23.980Z,95424.00
2019-05-01T21:37:56.933Z,95417.00
2019-05-01T21:40:38.709Z,95409.00
2019-05-01T21:43:03.695Z,95420.00
2019-05-01T21:45:36.014Z,95415.00
2019-05-01T21:48:07.906Z,95413.00
2019-05-01T21:50:40.524Z,95400.00
2019-05-01T21:53:13.051Z,95401.00
2019-05-01T21:55:46.234Z,95398.00
2019-05-01T21:58:21.153Z,95408.00
2019-05-01T22:00:55.192Z,95395.00
2019-05-01T22:03:27.336Z,95402.00
2019-05-01T22:05:59.428Z,95399.00
2019-05-01T22:08:34.482Z,95401.00
2019-05-01T22:11:06.494Z,95397.00
2019-05-01T22:13:41.818Z,95396.00
2019-05-01T22:16:22.365Z,95395.00
2019-05-01T22:19:04.381Z,95390.00
2019-05-01T22:21:55.593Z,95388.00
2019-05-01T22:25:01.862Z,95386.00
2019-05-01T22:27:40.588Z,95393.00
2019-05-01T22:30:23.807Z,95384.00
2019-05-01T22:32:57.752Z,95386.00
2019-05-01T22:35:35.300Z,95383.00
2019-05-01T22:38:08.258Z,95378.00
2019-05-01T22:41:06.531Z,95384.00
2019-05-01T22:43:37.011Z,95376.00
2019-05-01T22:46:13.269Z,95373.00
2019-05-01T22:48:46.416Z,95380.00
2019-05-01T22:51:22.602Z,95372.00
2019-05-01T22:53:57.765Z,95383.00
2019-05-01T22:56:30.107Z,95378.00
2019-05-01T22:59:03.221Z,95379.00
2019-05-01T23:01:35.116Z,95383.00
2019-05-01T23:04:12.070Z,95377.00
2019-05-01T23:06:43.127Z,95373.00
2019-05-01T23:09:17.339Z,95368.00
2019-05-01T23:11:49.268Z,95365.00
2019-05-01T23:14:24.188Z,95365.00
2019-05-01T23:17:09.163Z,95364.00
2019-05-01T23:19:41.749Z,95357.00
2019-05-01T23:22:13.703Z,95356.00
2019-05-01T23:24:46.397Z,95354.00
2019-05-01T23:27:18.645Z,95351.00
2019-05-01T23:29:51.315Z,95352.00
2019-05-01T23:32:24.411Z,95350.00
2019-05-01T23:34:56.401Z,95347.00
2019-05-01T23:37:28.333Z,95347.00
2019-05-01T23:40:00.576Z,95340.00
2019-05-01T23:42:35.069Z,95335.00
2019-05-01T23:45:07.213Z,95339.00
2019-05-01T23:47:39.148Z,95330.00
2019-05-01T23:50:11.277Z,95325.00
2019-05-01T23:52:43.969Z,95329.00
2019-05-01T23:55:16.518Z,95333.00
2019-05-01T23:57:48.758Z,95329.00
